createdAt,value
2022-09-17T00:01:05.202Z,0.73
2022-09-17T00:03:34.327Z,1.10
2022-09-17T00:06:06.957Z,1.05
2022-09-17T00:08:35.096Z,1.17
2022-09-17T00:11:17.115Z,0.55
2022-09-17T00:13:44.935Z,0.60
2022-09-17T00:16:12.610Z,0.57
2022-09-17T00:18:41.680Z,0.65
2022-09-17T00:21:19.312Z,0.75
2022-09-17T00:23:46.526Z,0.73
2022-09-17T00:26:13.380Z,0.68
2022-09-17T00:28:41.696Z,0.73
2022-09-17T00:31:09.638Z,0.68
2022-09-17T00:33:36.811Z,1.05
2022-09-17T00:36:05.371Z,0.40
2022-09-17T00:38:32.372Z,1.15
2022-09-17T00:40:59.078Z,2.03
2022-09-17T00:43:37.552Z,0.75
2022-09-17T00:46:12.000Z,0.40
2022-09-17T00:48:38.883Z,0.70
2022-09-17T00:51:08.984Z,0.38
2022-09-17T00:53:35.645Z,1.05
2022-09-17T00:56:08.819Z,0.75
2022-09-17T00:58:40.966Z,0.50
2022-09-17T01:01:08.034Z,0.30
2022-09-17T01:03:34.776Z,1.13
2022-09-17T01:06:29.159Z,0.75
2022-09-17T01:09:10.774Z,0.65
2022-09-17T01:12:09.396Z,0.60
2022-09-17T01:15:13.656Z,1.40
2022-09-17T01:18:22.682Z,1.13
2022-09-17T01:21:18.026Z,0.80
2022-09-17T01:23:56.576Z,1.30
2022-09-17T01:26:44.296Z,0.50
2022-09-17T01:29:29.343Z,0.50
2022-09-17T01:32:15.091Z,0.77
2022-09-17T01:34:45.019Z,1.85
2022-09-17T01:37:27.794Z,0.40
2022-09-17T01:40:08.548Z,0.30
2022-09-17T01:43:05.103Z,0.55
2022-09-17T01:45:50.296Z,0.57
2022-09-17T01:48:19.677Z,0.95
2022-09-17T01:50:49.700Z,0.70
2022-09-17T01:53:18.757Z,0.60
2022-09-17T01:55:49.124Z,0.40
2022-09-17T01:58:33.587Z,0.80
2022-09-17T02:01:04.762Z,1.17
2022-09-17T02:03:46.623Z,1.07
2022-09-17T02:06:17.596Z,0.43
2022-09-17T02:09:07.689Z,0.82
2022-09-17T02:11:39.004Z,0.68
2022-09-17T02:14:17.871Z,0.52
2022-09-17T02:17:02.034Z,0.73
2022-09-17T02:19:33.155Z,0.73
2022-09-17T02:22:06.585Z,0.70
2022-09-17T02:24:44.282Z,0.80
2022-09-17T02:27:22.901Z,0.70
2022-09-17T02:29:50.184Z,0.77
2022-09-17T02:32:16.849Z,0.85
2022-09-17T02:34:43.535Z,0.52
2022-09-17T02:37:10.298Z,0.30
2022-09-17T02:39:36.885Z,0.40
2022-09-17T02:42:29.840Z,0.40
2022-09-17T02:45:12.174Z,0.28
2022-09-17T02:48:06.540Z,0.50
2022-09-17T02:51:18.697Z,0.60
2022-09-17T02:54:06.628Z,0.30
2022-09-17T02:56:57.901Z,0.50
2022-09-17T02:59:29.764Z,0.60
2022-09-17T03:02:08.563Z,0.55
2022-09-17T03:04:36.985Z,1.65
2022-09-17T03:07:12.014Z,0.32
2022-09-17T03:09:39.373Z,0.70
2022-09-17T03:12:06.321Z,0.40
2022-09-17T03:14:33.036Z,0.45
2022-09-17T03:16:59.613Z,0.32
2022-09-17T03:19:27.825Z,0.30
2022-09-17T03:21:54.693Z,0.30
2022-09-17T03:24:21.383Z,0.40
2022-09-17T03:26:49.228Z,0.93
2022-09-17T03:29:16.248Z,0.25
2022-09-17T03:31:43.064Z,0.32
2022-09-17T03:34:09.648Z,0.50
2022-09-17T03:36:36.243Z,0.50
2022-09-17T03:39:02.861Z,0.35
2022-09-17T03:41:29.460Z,0.80
2022-09-17T03:43:56.065Z,0.88
2022-09-17T03:46:22.746Z,0.80
2022-09-17T03:48:49.379Z,1.30
2022-09-17T03:51:16.011Z,0.30
2022-09-17T03:53:42.689Z,0.40
2022-09-17T03:56:09.372Z,0.45
2022-09-17T03:58:36.513Z,0.55
2022-09-17T04:01:04.084Z,0.30
2022-09-17T04:03:31.080Z,0.57
2022-09-17T04:05:57.790Z,0.57
2022-09-17T04:08:24.616Z,0.52
2022-09-17T04:10:54.221Z,0.40
2022-09-17T04:13:21.055Z,0.30
2022-09-17T04:15:48.123Z,0.82
2022-09-17T04:18:15.337Z,0.38
2022-09-17T04:20:43.008Z,0.30
2022-09-17T04:23:11.959Z,0.50
2022-09-17T04:25:39.053Z,1.20
2022-09-17T04:28:06.929Z,0.50
2022-09-17T04:30:33.576Z,0.50
2022-09-17T04:33:00.159Z,0.30
2022-09-17T04:35:26.731Z,0.50
2022-09-17T04:37:57.915Z,0.70
2022-09-17T04:40:26.227Z,1.30
2022-09-17T04:42:54.143Z,1.10
2022-09-17T04:45:21.086Z,1.02
2022-09-17T04:47:47.742Z,1.05
2022-09-17T04:50:14.484Z,0.75
2022-09-17T04:52:45.037Z,0.70
2022-09-17T04:55:12.150Z,0.35
2022-09-17T04:57:39.028Z,0.73
2022-09-17T05:00:10.547Z,0.55
2022-09-17T05:02:37.153Z,1.00
2022-09-17T05:05:03.979Z,1.20
2022-09-17T05:07:30.695Z,0.30
2022-09-17T05:09:57.361Z,0.85
2022-09-17T05:12:23.952Z,0.80
2022-09-17T05:14:50.547Z,0.60
2022-09-17T05:17:17.204Z,0.77
2022-09-17T05:19:43.824Z,0.52
2022-09-17T05:22:10.405Z,0.40
2022-09-17T05:24:39.275Z,0.57
2022-09-17T05:27:07.274Z,0.95
2022-09-17T05:29:34.143Z,1.95
2022-09-17T05:32:00.711Z,0.77
2022-09-17T05:34:27.309Z,0.93
2022-09-17T05:36:54.101Z,0.32
2022-09-17T05:39:22.616Z,0.35
2022-09-17T05:41:49.234Z,0.63
2022-09-17T05:44:18.115Z,0.85
2022-09-17T05:46:46.003Z,0.47
2022-09-17T05:49:13.299Z,0.55
2022-09-17T05:51:39.913Z,0.98
2022-09-17T05:54:06.910Z,2.65
2022-09-17T05:56:33.667Z,3.63
2022-09-17T05:59:00.408Z,4.70
2022-09-17T06:01:27.629Z,3.00
2022-09-17T06:03:54.580Z,6.18
2022-09-17T06:06:21.150Z,6.88
2022-09-17T06:08:47.724Z,3.67
2022-09-17T06:11:14.309Z,4.72
2022-09-17T06:13:43.431Z,4.93
2022-09-17T06:16:10.087Z,3.63
2022-09-17T06:18:36.766Z,1.92
2022-09-17T06:21:05.541Z,2.30
2022-09-17T06:23:35.273Z,2.35
2022-09-17T06:26:03.380Z,4.32
2022-09-17T06:28:30.477Z,2.67
2022-09-17T06:31:02.219Z,5.53
2022-09-17T06:33:29.988Z,3.40
2022-09-17T06:36:00.116Z,2.17
2022-09-17T06:38:28.111Z,2.90
2022-09-17T06:40:54.818Z,3.67
2022-09-17T06:43:21.986Z,4.25
2022-09-17T06:45:52.891Z,1.98
2022-09-17T06:48:19.983Z,1.02
2022-09-17T06:50:46.598Z,4.50
2022-09-17T06:53:13.198Z,3.83
2022-09-17T06:55:40.591Z,1.48
2022-09-17T06:58:07.223Z,2.78
2022-09-17T07:00:33.832Z,4.65
2022-09-17T07:03:01.199Z,3.72
2022-09-17T07:05:29.647Z,4.20
2022-09-17T07:07:56.373Z,1.48
2022-09-17T07:10:26.836Z,5.18
2022-09-17T07:12:54.556Z,1.13
2022-09-17T07:15:21.419Z,5.10
2022-09-17T07:17:48.128Z,1.70
2022-09-17T07:20:15.151Z,2.10
2022-09-17T07:22:41.815Z,2.42
2022-09-17T07:25:09.091Z,3.53
2022-09-17T07:27:36.752Z,3.08
2022-09-17T07:30:03.892Z,2.20
2022-09-17T07:32:31.277Z,2.05
2022-09-17T07:34:57.898Z,2.03
2022-09-17T07:37:24.732Z,3.15
2022-09-17T07:39:51.342Z,5.82
2022-09-17T07:42:17.986Z,1.45
2022-09-17T07:44:45.884Z,2.50
2022-09-17T07:47:12.686Z,2.13
2022-09-17T07:49:39.456Z,2.70
2022-09-17T07:52:06.496Z,1.85
2022-09-17T07:54:39.195Z,0.98
2022-09-17T07:57:05.971Z,1.30
2022-09-17T07:59:32.626Z,4.28
2022-09-17T08:01:59.298Z,1.35
2022-09-17T08:04:25.995Z,1.27
2022-09-17T08:06:52.585Z,1.48
2022-09-17T08:09:19.228Z,2.97
2022-09-17T08:12:01.400Z,1.70
2022-09-17T08:16:57.242Z,1.75
2022-09-17T08:19:24.401Z,2.53
2022-09-17T08:21:51.101Z,3.80
2022-09-17T08:24:17.745Z,3.05
2022-09-17T08:26:44.439Z,4.57
2022-09-17T08:29:11.286Z,1.88
2022-09-17T08:31:38.054Z,1.05
2022-09-17T08:34:09.556Z,1.67
2022-09-17T08:36:36.874Z,5.28
2022-09-17T08:39:03.933Z,2.20
2022-09-17T08:41:56.438Z,1.50
2022-09-17T08:44:32.040Z,3.17
2022-09-17T08:47:06.379Z,3.25
2022-09-17T08:49:37.660Z,4.20
2022-09-17T08:52:13.112Z,8.77
2022-09-17T08:54:58.203Z,9.43
2022-09-17T08:57:43.283Z,9.10
2022-09-17T09:00:19.176Z,6.45
2022-09-17T09:03:17.032Z,9.82
2022-09-17T09:05:48.593Z,8.73
2022-09-17T09:08:25.923Z,8.48
2022-09-17T09:10:55.405Z,6.93
2022-09-17T09:13:25.165Z,7.53
2022-09-17T09:15:57.096Z,7.47
2022-09-17T09:20:55.481Z,9.93
2022-09-17T09:23:42.337Z,6.00
2022-09-17T09:26:31.634Z,4.28
2022-09-17T09:29:21.599Z,6.43
2022-09-17T09:32:29.737Z,8.70
2022-09-17T09:34:57.939Z,4.47
2022-09-17T09:37:31.512Z,10.07
2022-09-17T09:40:16.194Z,5.55
2022-09-17T09:42:44.724Z,3.97
2022-09-17T09:45:22.348Z,7.95
2022-09-17T09:47:53.788Z,8.27
2022-09-17T09:50:24.702Z,7.05
2022-09-17T09:53:30.695Z,11.68
2022-09-17T09:56:36.640Z,11.65
2022-09-17T09:59:07.354Z,11.25
2022-09-17T10:01:38.847Z,9.82
2022-09-17T10:04:23.035Z,6.82
2022-09-17T10:07:03.028Z,7.22
2022-09-17T10:09:32.447Z,11.63
2022-09-17T10:12:09.616Z,7.93
2022-09-17T10:14:37.950Z,4.38
2022-09-17T10:17:23.786Z,5.93
2022-09-17T10:20:18.328Z,5.47
2022-09-17T10:22:49.006Z,8.70
2022-09-17T10:25:28.827Z,7.65
2022-09-17T10:27:57.751Z,8.20
2022-09-17T10:30:25.889Z,7.13
2022-09-17T10:33:22.668Z,6.20
2022-09-17T10:36:38.068Z,5.93
2022-09-17T10:39:34.245Z,6.63
2022-09-17T10:42:02.148Z,6.68
2022-09-17T10:44:36.680Z,4.95
2022-09-17T10:47:31.057Z,4.72
2022-09-17T10:50:19.792Z,4.90
2022-09-17T10:52:52.784Z,5.03
2022-09-17T10:55:32.450Z,5.68
2022-09-17T10:58:10.071Z,5.93
2022-09-17T11:01:10.618Z,4.78
2022-09-17T11:03:37.179Z,3.00
2022-09-17T11:06:25.250Z,4.38
2022-09-17T11:08:52.023Z,3.53
2022-09-17T11:11:24.279Z,4.22
2022-09-17T11:13:56.589Z,5.25
2022-09-17T11:16:35.627Z,5.55
2022-09-17T11:19:28.019Z,4.00
2022-09-17T11:24:53.190Z,4.70
2022-09-17T11:27:38.750Z,2.85
2022-09-17T11:30:10.662Z,4.53
2022-09-17T11:32:45.848Z,3.72
2022-09-17T11:35:15.945Z,6.40
2022-09-17T11:37:50.164Z,3.15
2022-09-17T11:40:32.154Z,4.38
2022-09-17T11:43:26.279Z,2.95
2022-09-17T11:46:34.672Z,2.75
2022-09-17T11:49:06.056Z,3.25
2022-09-17T11:51:40.532Z,3.05
2022-09-17T11:54:22.648Z,4.45
2022-09-17T11:59:38.371Z,4.05
2022-09-17T12:02:10.793Z,6.38
2022-09-17T12:05:00.067Z,7.15
2022-09-17T12:07:45.422Z,4.60
2022-09-17T12:10:32.541Z,3.85
2022-09-17T12:13:22.059Z,4.88
2022-09-17T12:16:04.273Z,2.65
2022-09-17T12:21:01.925Z,6.07
2022-09-17T12:23:44.049Z,2.85
2022-09-17T12:26:29.313Z,2.42
2022-09-17T12:29:08.734Z,4.35
2022-09-17T12:31:54.126Z,2.70
2022-09-17T12:34:41.555Z,3.03
2022-09-17T12:37:26.980Z,4.68
2022-09-17T12:40:07.045Z,2.92
2022-09-17T12:42:47.992Z,3.92
2022-09-17T12:45:24.761Z,4.88
2022-09-17T12:48:16.285Z,2.10
2022-09-17T12:51:18.118Z,3.60
2022-09-17T12:54:41.804Z,2.70
2022-09-17T12:57:29.612Z,3.38
2022-09-17T13:00:13.742Z,5.38
2022-09-17T13:02:43.532Z,3.13
2022-09-17T13:05:22.290Z,4.35
2022-09-17T13:08:09.134Z,2.53
2022-09-17T13:11:00.429Z,6.05
2022-09-17T13:13:29.903Z,2.33
2022-09-17T13:16:33.568Z,5.15
2022-09-17T13:19:16.558Z,5.07
2022-09-17T13:21:56.644Z,1.88
2022-09-17T13:24:27.063Z,6.18
2022-09-17T13:26:54.795Z,3.75
2022-09-17T13:29:44.672Z,6.82
2022-09-17T13:32:33.436Z,2.72
2022-09-17T13:35:15.081Z,3.95
2022-09-17T13:37:53.993Z,2.15
2022-09-17T13:40:26.944Z,4.50
2022-09-17T13:42:57.778Z,4.30
2022-09-17T13:45:26.223Z,3.72
2022-09-17T13:47:54.456Z,1.83
2022-09-17T13:50:37.529Z,5.10
2022-09-17T13:53:14.710Z,4.38
2022-09-17T13:55:50.823Z,2.63
2022-09-17T13:58:23.310Z,3.15
2022-09-17T14:00:51.715Z,5.47
2022-09-17T14:03:48.492Z,2.95
2022-09-17T14:06:15.177Z,2.08
2022-09-17T14:08:44.691Z,2.72
2022-09-17T14:11:23.818Z,2.08
2022-09-17T14:14:11.597Z,1.63
2022-09-17T14:16:45.645Z,6.10
2022-09-17T14:19:51.574Z,6.90
2022-09-17T14:22:25.989Z,4.50
2022-09-17T14:24:54.562Z,2.88
2022-09-17T14:27:42.881Z,2.53
2022-09-17T14:30:18.022Z,5.25
2022-09-17T14:32:51.721Z,3.13
2022-09-17T14:35:42.652Z,6.10
2022-09-17T14:38:31.615Z,2.85
2022-09-17T14:41:03.976Z,7.05
2022-09-17T14:43:53.787Z,4.15
2022-09-17T14:46:27.617Z,1.30
2022-09-17T14:48:54.228Z,3.92
2022-09-17T14:51:25.301Z,4.30
2022-09-17T14:54:05.551Z,5.13
2022-09-17T14:56:34.782Z,2.58
2022-09-17T14:59:01.858Z,0.88
2022-09-17T15:01:30.734Z,2.22
2022-09-17T15:04:12.775Z,2.83
2022-09-17T15:06:43.981Z,4.10
2022-09-17T15:09:19.172Z,1.80
2022-09-17T15:11:50.189Z,2.63
2022-09-17T15:14:20.678Z,1.67
2022-09-17T15:16:53.883Z,5.60
2022-09-17T15:19:28.155Z,2.28
2022-09-17T15:21:57.912Z,3.80
2022-09-17T15:24:30.408Z,4.32
2022-09-17T15:26:59.531Z,3.80
2022-09-17T15:29:29.932Z,3.15
2022-09-17T15:31:57.055Z,4.05
2022-09-17T15:34:23.831Z,1.92
2022-09-17T15:37:20.242Z,2.35
2022-09-17T15:39:52.017Z,3.63
2022-09-17T15:42:30.054Z,1.88
2022-09-17T15:45:26.255Z,2.72
2022-09-17T15:48:01.249Z,4.63
2022-09-17T15:50:30.568Z,1.70
2022-09-17T15:53:03.132Z,1.73
2022-09-17T15:55:35.991Z,2.53
2022-09-17T15:58:24.586Z,2.05
2022-09-17T16:01:10.043Z,1.40
2022-09-17T16:03:39.623Z,3.00
2022-09-17T16:06:29.362Z,1.60
2022-09-17T16:09:01.174Z,2.03
2022-09-17T16:11:30.798Z,2.08
2022-09-17T16:13:59.603Z,3.65
2022-09-17T16:16:37.536Z,0.98
2022-09-17T16:19:06.662Z,2.03
2022-09-17T16:21:33.278Z,2.42
2022-09-17T16:23:59.852Z,2.58
2022-09-17T16:26:31.274Z,2.45
2022-09-17T16:29:05.385Z,2.75
2022-09-17T16:31:32.939Z,1.27
2022-09-17T16:34:00.611Z,1.92
2022-09-17T16:36:30.850Z,0.90
2022-09-17T16:38:58.077Z,3.58
2022-09-17T16:41:24.634Z,3.08
2022-09-17T16:43:51.198Z,1.00
2022-09-17T16:46:17.822Z,2.67
2022-09-17T16:48:46.342Z,1.65
2022-09-17T16:51:14.164Z,3.33
2022-09-17T16:53:41.104Z,0.65
2022-09-17T16:56:13.191Z,1.92
2022-09-17T16:58:40.190Z,1.75
2022-09-17T17:01:11.201Z,0.80
2022-09-17T17:03:38.189Z,0.90
2022-09-17T17:06:04.938Z,1.80
2022-09-17T17:08:33.081Z,1.83
2022-09-17T17:11:00.374Z,1.95
2022-09-17T17:13:27.802Z,1.08
2022-09-17T17:15:54.878Z,1.73
2022-09-17T17:18:22.461Z,1.80
2022-09-17T17:20:49.038Z,0.93
2022-09-17T17:23:16.072Z,0.63
2022-09-17T17:25:42.690Z,0.88
2022-09-17T17:28:09.586Z,2.40
2022-09-17T17:30:36.314Z,3.25
2022-09-17T17:33:04.021Z,1.67
2022-09-17T17:35:30.764Z,2.25
2022-09-17T17:37:57.331Z,3.03
2022-09-17T17:40:24.068Z,1.42
2022-09-17T17:42:53.634Z,4.28
2022-09-17T17:45:20.287Z,2.50
2022-09-17T17:47:46.930Z,2.25
2022-09-17T17:50:13.580Z,6.40
2022-09-17T17:52:43.304Z,1.95
2022-09-17T17:55:09.959Z,2.55
2022-09-17T17:57:36.544Z,0.70
2022-09-17T18:00:04.212Z,1.13
2022-09-17T18:02:30.867Z,1.83
2022-09-17T18:05:02.065Z,2.10
2022-09-17T18:07:30.644Z,1.75
2022-09-17T18:09:57.196Z,2.30
2022-09-17T18:12:26.824Z,2.80
2022-09-17T18:14:53.778Z,2.20
2022-09-17T18:17:20.395Z,2.08
2022-09-17T18:19:46.952Z,2.58
2022-09-17T18:22:14.102Z,1.88
2022-09-17T18:24:40.701Z,1.80
2022-09-17T18:27:07.287Z,1.45
2022-09-17T18:29:33.886Z,1.45
2022-09-17T18:32:00.467Z,4.57
2022-09-17T18:34:27.203Z,0.68
2022-09-17T18:36:53.796Z,1.75
2022-09-17T18:39:56.965Z,1.58
2022-09-17T18:42:08.297Z,0.90
2022-09-17T18:44:34.946Z,1.70
2022-09-17T18:47:01.644Z,3.85
2022-09-17T18:49:28.303Z,2.25
2022-09-17T18:51:55.574Z,2.80
2022-09-17T18:54:22.188Z,2.00
2022-09-17T18:56:48.851Z,3.28
2022-09-17T18:59:15.649Z,1.40
2022-09-17T19:01:42.279Z,1.98
2022-09-17T19:04:10.199Z,2.63
2022-09-17T19:06:36.984Z,2.22
2022-09-17T19:09:04.867Z,2.55
2022-09-17T19:11:31.519Z,2.42
2022-09-17T19:13:58.527Z,1.05
2022-09-17T19:16:25.187Z,3.17
2022-09-17T19:18:51.953Z,1.27
2022-09-17T19:21:22.772Z,3.92
2022-09-17T19:23:51.333Z,4.80
2022-09-17T19:26:21.626Z,1.25
2022-09-17T19:28:51.141Z,2.35
2022-09-17T19:31:17.922Z,1.52
2022-09-17T19:33:44.895Z,1.38
2022-09-17T19:36:16.718Z,2.75
2022-09-17T19:38:43.559Z,3.95
2022-09-17T19:41:12.917Z,1.70
2022-09-17T19:43:40.268Z,1.35
2022-09-17T19:46:14.173Z,4.07
2022-09-17T19:48:49.787Z,2.40
2022-09-17T19:51:17.486Z,1.60
2022-09-17T19:53:44.166Z,2.15
2022-09-17T19:56:13.241Z,2.55
2022-09-17T19:58:40.036Z,1.75
2022-09-17T20:01:06.692Z,2.20
2022-09-17T20:03:33.667Z,2.50
2022-09-17T20:06:01.591Z,2.65
2022-09-17T20:08:28.651Z,3.10
2022-09-17T20:10:55.442Z,3.40
2022-09-17T20:13:23.443Z,3.03
2022-09-17T20:15:50.091Z,2.80
2022-09-17T20:18:21.133Z,3.03
2022-09-17T20:20:49.952Z,3.25
2022-09-17T20:23:16.534Z,3.17
2022-09-17T20:25:44.565Z,3.72
2022-09-17T20:28:11.143Z,4.78
2022-09-17T20:30:37.694Z,2.35
2022-09-17T20:33:04.266Z,1.98
2022-09-17T20:35:30.820Z,2.97
2022-09-17T20:40:44.367Z,3.08
2022-09-17T20:43:10.972Z,4.20
2022-09-17T20:45:37.571Z,2.90
2022-09-17T20:48:04.162Z,3.70
2022-09-17T20:50:30.787Z,4.20
2022-09-17T20:52:57.644Z,3.95
2022-09-17T20:55:24.384Z,2.13
2022-09-17T20:57:53.651Z,4.05
2022-09-17T21:00:21.484Z,7.25
2022-09-17T21:02:52.419Z,7.38
2022-09-17T21:05:19.091Z,10.38
2022-09-17T21:07:45.688Z,8.68
2022-09-17T21:10:13.373Z,9.63
2022-09-17T21:12:40.007Z,8.32
2022-09-17T21:15:06.992Z,11.63
2022-09-17T21:17:34.541Z,8.98
2022-09-17T21:20:03.871Z,9.75
2022-09-17T21:22:30.519Z,8.35
2022-09-17T21:24:57.160Z,11.30
2022-09-17T21:27:23.749Z,7.40
2022-09-17T21:29:50.335Z,8.40
2022-09-17T21:32:16.902Z,9.90
2022-09-17T21:34:43.487Z,8.43
2022-09-17T21:37:10.068Z,9.07
2022-09-17T21:39:36.841Z,9.48
2022-09-17T21:42:03.492Z,8.63
2022-09-17T21:44:30.181Z,7.50
2022-09-17T21:46:57.886Z,7.45
2022-09-17T21:49:24.966Z,6.63
2022-09-17T21:51:51.701Z,10.63
2022-09-17T21:54:18.749Z,8.52
2022-09-17T21:56:46.243Z,9.02
2022-09-17T21:59:14.576Z,6.25
2022-09-17T22:01:46.170Z,8.00
2022-09-17T22:04:16.394Z,8.40
2022-09-17T22:06:43.840Z,6.30
2022-09-17T22:09:17.613Z,6.35
2022-09-17T22:11:45.185Z,7.15
2022-09-17T22:14:14.640Z,6.88
2022-09-17T22:16:43.465Z,6.75
2022-09-17T22:19:12.791Z,7.82
2022-09-17T22:21:42.017Z,7.30
2022-09-17T22:24:10.227Z,5.90
2022-09-17T22:26:43.156Z,7.40
2022-09-17T22:29:18.067Z,7.85
2022-09-17T22:31:45.526Z,6.82
2022-09-17T22:34:15.559Z,8.38
2022-09-17T22:36:42.617Z,6.18
2022-09-17T22:39:09.596Z,5.75
2022-09-17T22:41:42.809Z,7.30
2022-09-17T22:44:12.234Z,4.90
2022-09-17T22:46:40.496Z,7.68
2022-09-17T22:49:09.699Z,6.03
2022-09-17T22:51:37.456Z,5.97
2022-09-17T22:54:05.183Z,6.68
2022-09-17T22:56:33.535Z,4.90
2022-09-17T22:59:00.176Z,7.47
2022-09-17T23:01:29.359Z,6.97
2022-09-17T23:03:58.511Z,4.90
2022-09-17T23:06:28.110Z,6.22
2022-09-17T23:08:54.788Z,7.75
2022-09-17T23:11:24.355Z,4.82
2022-09-17T23:13:51.706Z,5.20
2022-09-17T23:16:19.922Z,6.55
2022-09-17T23:18:47.065Z,5.75
2022-09-17T23:21:16.509Z,5.72
2022-09-17T23:23:46.047Z,5.35
2022-09-17T23:26:21.749Z,5.38
2022-09-17T23:28:49.365Z,4.75
2022-09-17T23:31:20.828Z,5.22
2022-09-17T23:33:48.161Z,3.63
2022-09-17T23:36:19.459Z,5.35
2022-09-17T23:38:47.910Z,5.40
2022-09-17T23:41:29.628Z,4.70
2022-09-17T23:44:01.716Z,3.97
2022-09-17T23:46:31.346Z,3.67
2022-09-17T23:48:58.523Z,4.55
2022-09-17T23:51:27.031Z,4.00
2022-09-17T23:53:57.680Z,4.93
2022-09-17T23:56:26.600Z,4.35
2022-09-17T23:58:54.567Z,5.53
